createdAt,value
2018-07-10T00:02:42.620Z,2.63
2018-07-10T00:07:38.481Z,2.80
2018-07-10T00:10:41.338Z,2.53
2018-07-10T00:13:14.486Z,3.20
2018-07-10T00:15:47.133Z,2.70
2018-07-10T00:18:19.993Z,2.80
2018-07-10T00:20:51.605Z,2.93
2018-07-10T00:23:25.536Z,2.63
2018-07-10T00:25:58.333Z,2.50
2018-07-10T00:28:30.046Z,2.70
2018-07-10T00:31:01.877Z,2.57
2018-07-10T00:33:33.299Z,2.40
2018-07-10T00:36:06.102Z,2.50
2018-07-10T00:38:53.603Z,2.10
2018-07-10T00:41:33.630Z,2.37
2018-07-10T00:44:07.675Z,2.70
2018-07-10T00:46:41.498Z,2.77
2018-07-10T00:49:13.419Z,3.07
2018-07-10T00:51:45.947Z,2.40
2018-07-10T00:54:18.546Z,3.00
2018-07-10T00:56:50.081Z,2.40
2018-07-10T00:59:23.741Z,3.03
2018-07-10T01:01:57.902Z,2.60
2018-07-10T01:04:30.173Z,2.93
2018-07-10T01:07:01.140Z,2.90
2018-07-10T01:09:34.702Z,2.97
2018-07-10T01:12:06.200Z,2.43
2018-07-10T01:14:38.942Z,2.70
2018-07-10T01:17:10.434Z,2.77
2018-07-10T01:19:42.107Z,3.20
2018-07-10T01:22:14.256Z,2.70
2018-07-10T01:24:46.753Z,3.17
2018-07-10T01:27:19.384Z,2.90
2018-07-10T01:29:52.245Z,2.93
2018-07-10T01:32:23.808Z,2.90
2018-07-10T01:34:58.009Z,3.07
2018-07-10T01:37:29.450Z,2.90
2018-07-10T01:40:04.457Z,2.60
2018-07-10T01:42:37.469Z,2.73
2018-07-10T01:45:10.126Z,2.90
2018-07-10T01:47:45.834Z,3.03
2018-07-10T01:50:20.090Z,3.17
2018-07-10T01:52:52.777Z,2.80
2018-07-10T01:55:24.262Z,2.90
2018-07-10T01:57:58.633Z,3.07
2018-07-10T02:00:44.004Z,2.90
2018-07-10T02:03:16.387Z,3.03
2018-07-10T02:05:47.952Z,2.50
2018-07-10T02:08:21.653Z,2.63
2018-07-10T02:10:53.174Z,2.80
2018-07-10T02:13:26.771Z,2.63
2018-07-10T02:15:58.475Z,2.67
2018-07-10T02:18:30.854Z,2.80
2018-07-10T02:21:07.729Z,2.47
2018-07-10T02:23:44.588Z,2.50
2018-07-10T02:26:23.134Z,2.57
2018-07-10T02:28:56.569Z,2.90
2018-07-10T02:31:28.577Z,2.70
2018-07-10T02:34:01.572Z,2.80
2018-07-10T02:36:34.226Z,2.77
2018-07-10T02:39:07.063Z,2.50
2018-07-10T02:41:39.828Z,2.70
2018-07-10T02:44:11.281Z,2.90
2018-07-10T02:46:43.954Z,2.80
2018-07-10T02:49:22.729Z,2.80
2018-07-10T02:52:04.809Z,2.90
2018-07-10T02:54:42.450Z,2.57
2018-07-10T02:57:16.417Z,3.13
2018-07-10T02:59:48.723Z,3.43
2018-07-10T03:02:26.113Z,2.87
2018-07-10T03:05:03.563Z,3.10
2018-07-10T03:07:37.826Z,3.30
2018-07-10T03:10:10.703Z,2.70
2018-07-10T03:12:43.927Z,2.77
2018-07-10T03:15:17.943Z,2.87
2018-07-10T03:17:51.617Z,2.73
2018-07-10T03:20:23.377Z,2.93
2018-07-10T03:22:54.402Z,2.67
2018-07-10T03:25:27.749Z,2.87
2018-07-10T03:27:59.260Z,2.70
2018-07-10T03:30:31.981Z,3.00
2018-07-10T03:33:03.665Z,2.40
2018-07-10T03:35:35.379Z,3.03
2018-07-10T03:38:08.294Z,2.73
2018-07-10T03:40:40.419Z,3.20
2018-07-10T03:43:13.166Z,3.10
2018-07-10T03:45:46.207Z,2.97
2018-07-10T03:48:19.673Z,2.70
2018-07-10T03:50:53.824Z,2.70
2018-07-10T03:53:27.606Z,3.10
2018-07-10T03:55:59.493Z,3.00
2018-07-10T03:58:32.613Z,2.50
2018-07-10T04:01:03.655Z,2.80
2018-07-10T04:03:36.299Z,3.10
2018-07-10T04:06:09.550Z,3.00
2018-07-10T04:08:41.361Z,2.97
2018-07-10T04:11:15.051Z,3.00
2018-07-10T04:13:46.826Z,3.10
2018-07-10T04:16:19.133Z,2.83
2018-07-10T04:18:52.164Z,3.00
2018-07-10T04:21:28.790Z,2.80
2018-07-10T04:24:18.389Z,2.70
2018-07-10T04:27:33.085Z,2.80
2018-07-10T04:30:20.305Z,2.97
2018-07-10T04:32:51.794Z,2.60
2018-07-10T04:35:30.064Z,2.80
2018-07-10T04:38:02.129Z,2.63
2018-07-10T04:40:37.596Z,3.20
2018-07-10T04:43:18.498Z,2.70
2018-07-10T04:45:53.156Z,2.97
2018-07-10T04:49:06.725Z,2.80
2018-07-10T04:51:49.776Z,2.53
2018-07-10T04:54:36.378Z,2.97
2018-07-10T04:57:21.914Z,2.87
2018-07-10T04:59:55.161Z,2.63
2018-07-10T05:02:27.992Z,3.00
2018-07-10T05:04:59.891Z,3.20
2018-07-10T05:07:33.758Z,2.73
2018-07-10T05:10:06.547Z,3.17
2018-07-10T05:12:40.282Z,3.17
2018-07-10T05:15:14.816Z,3.10
2018-07-10T05:17:51.976Z,3.10
2018-07-10T05:20:26.925Z,3.20
2018-07-10T05:22:59.252Z,2.57
2018-07-10T05:25:31.812Z,2.93
2018-07-10T05:28:04.867Z,3.30
2018-07-10T05:30:39.277Z,3.10
2018-07-10T05:33:13.637Z,3.20
2018-07-10T05:35:46.153Z,2.60
2018-07-10T05:38:26.106Z,2.40
2018-07-10T05:41:00.426Z,3.33
2018-07-10T05:43:33.650Z,3.13
2018-07-10T05:46:06.487Z,3.10
2018-07-10T05:48:40.470Z,2.90
2018-07-10T05:51:13.642Z,3.57
2018-07-10T05:53:46.133Z,3.70
2018-07-10T05:56:17.633Z,3.23
2018-07-10T05:58:49.175Z,3.70
2018-07-10T06:01:21.902Z,3.30
2018-07-10T06:03:54.686Z,3.40
2018-07-10T06:06:28.665Z,2.97
2018-07-10T06:09:01.103Z,3.47
2018-07-10T06:11:33.975Z,3.30
2018-07-10T06:14:06.636Z,3.03
2018-07-10T06:16:42.485Z,3.27
2018-07-10T06:19:14.141Z,3.07
2018-07-10T06:21:50.845Z,3.60
2018-07-10T06:24:28.819Z,4.00
2018-07-10T06:27:04.278Z,3.53
2018-07-10T06:29:49.667Z,3.67
2018-07-10T06:32:24.297Z,3.17
2018-07-10T06:35:14.098Z,3.17
2018-07-10T06:37:48.010Z,3.77
2018-07-10T06:40:23.311Z,3.50
2018-07-10T06:43:08.938Z,3.30
2018-07-10T06:45:40.477Z,3.27
2018-07-10T06:48:15.602Z,3.00
2018-07-10T06:50:47.015Z,2.93
2018-07-10T06:53:24.259Z,2.90
2018-07-10T06:56:00.278Z,2.80
2018-07-10T06:58:35.340Z,2.83
2018-07-10T07:01:07.584Z,2.60
2018-07-10T07:03:43.019Z,3.10
2018-07-10T07:06:14.609Z,2.70
2018-07-10T07:08:47.241Z,3.13
2018-07-10T07:11:20.072Z,2.80
2018-07-10T07:13:52.512Z,2.90
2018-07-10T07:16:24.699Z,2.90
2018-07-10T07:18:56.252Z,2.97
2018-07-10T07:21:30.349Z,3.30
2018-07-10T07:24:03.299Z,3.03
2018-07-10T07:26:35.431Z,3.20
2018-07-10T07:29:06.871Z,2.83
2018-07-10T07:31:39.567Z,3.10
2018-07-10T07:34:11.170Z,2.90
2018-07-10T07:36:42.557Z,2.80
2018-07-10T07:39:15.003Z,2.97
2018-07-10T07:41:46.858Z,2.80
2018-07-10T07:44:19.536Z,2.80
2018-07-10T07:46:52.203Z,2.53
2018-07-10T07:49:24.876Z,2.67
2018-07-10T07:51:58.026Z,2.87
2018-07-10T07:54:30.271Z,2.30
2018-07-10T07:57:03.496Z,2.10
2018-07-10T07:59:35.246Z,2.50
2018-07-10T08:02:09.450Z,2.30
2018-07-10T08:04:41.127Z,2.40
2018-07-10T08:07:13.941Z,2.30
2018-07-10T08:09:46.883Z,2.20
2018-07-10T08:12:20.183Z,2.57
2018-07-10T08:14:55.084Z,2.53
2018-07-10T08:17:28.282Z,2.60
2018-07-10T08:20:01.089Z,2.83
2018-07-10T08:22:34.106Z,2.50
2018-07-10T08:25:07.462Z,2.80
2018-07-10T08:27:39.686Z,2.77
2018-07-10T08:30:12.447Z,2.63
2018-07-10T08:32:45.141Z,2.20
2018-07-10T08:35:20.466Z,2.30
2018-07-10T08:37:54.055Z,2.10
2018-07-10T08:40:26.789Z,2.37
2018-07-10T08:42:59.337Z,1.87
2018-07-10T08:45:30.763Z,2.23
2018-07-10T08:48:04.512Z,2.23
2018-07-10T08:50:37.368Z,2.30
2018-07-10T08:53:09.968Z,2.00
2018-07-10T08:55:42.814Z,2.20
2018-07-10T08:58:14.424Z,2.40
2018-07-10T09:00:48.413Z,2.17
2018-07-10T09:03:21.190Z,2.40
2018-07-10T09:05:54.026Z,2.20
2018-07-10T09:08:25.586Z,2.20
2018-07-10T09:10:58.588Z,2.10
2018-07-10T09:13:31.338Z,2.20
2018-07-10T09:16:04.185Z,2.23
2018-07-10T09:18:36.294Z,2.10
2018-07-10T09:21:08.000Z,2.33
2018-07-10T09:23:41.625Z,2.30
2018-07-10T09:26:14.695Z,2.10
2018-07-10T09:28:47.336Z,2.00
2018-07-10T09:31:19.057Z,2.00
2018-07-10T09:33:51.957Z,1.93
2018-07-10T09:36:24.500Z,2.10
2018-07-10T09:38:56.390Z,1.80
2018-07-10T09:41:30.538Z,2.30
2018-07-10T09:44:03.566Z,2.33
2018-07-10T09:46:36.642Z,2.40
2018-07-10T09:49:08.154Z,2.57
2018-07-10T09:51:42.337Z,2.50
2018-07-10T09:54:15.090Z,2.37
2018-07-10T09:56:48.905Z,2.63
2018-07-10T09:59:21.680Z,2.50
2018-07-10T10:02:00.265Z,2.53
2018-07-10T10:04:33.440Z,2.30
2018-07-10T10:07:05.038Z,2.17
2018-07-10T10:09:38.965Z,2.83
2018-07-10T10:12:11.470Z,2.30
2018-07-10T10:14:45.255Z,2.30
2018-07-10T10:17:18.587Z,2.60
2018-07-10T10:19:52.634Z,2.37
2018-07-10T10:22:24.689Z,2.60
2018-07-10T10:24:57.636Z,2.60
2018-07-10T10:27:31.231Z,2.70
2018-07-10T10:30:04.848Z,2.63
2018-07-10T10:32:37.675Z,2.53
2018-07-10T10:35:10.309Z,2.53
2018-07-10T10:37:42.927Z,2.40
2018-07-10T10:40:18.299Z,2.23
2018-07-10T10:42:51.277Z,2.50
2018-07-10T10:45:24.317Z,2.37
2018-07-10T10:51:24.057Z,2.63
2018-07-10T10:53:55.939Z,2.60
2018-07-10T10:56:30.137Z,2.73
2018-07-10T10:59:03.744Z,2.80
2018-07-10T11:01:36.621Z,2.80
2018-07-10T11:04:07.700Z,2.60
2018-07-10T11:06:41.071Z,2.63
2018-07-10T11:09:14.689Z,2.70
2018-07-10T11:11:47.609Z,2.87
2018-07-10T11:14:19.101Z,2.73
2018-07-10T11:16:52.421Z,2.70
2018-07-10T11:19:41.360Z,2.93
2018-07-10T11:22:18.843Z,2.77
2018-07-10T11:25:13.924Z,2.77
2018-07-10T11:28:08.475Z,2.60
2018-07-10T11:30:41.216Z,2.70
2018-07-10T11:33:13.011Z,2.63
2018-07-10T11:35:46.214Z,2.50
2018-07-10T11:38:17.720Z,2.33
2018-07-10T11:40:51.997Z,2.50
2018-07-10T11:43:23.883Z,2.67
2018-07-10T11:45:56.410Z,2.47
2018-07-10T11:48:29.817Z,2.50
2018-07-10T11:51:03.087Z,2.60
2018-07-10T11:53:34.988Z,2.80
2018-07-10T11:56:23.283Z,2.70
2018-07-10T11:58:59.041Z,2.90
2018-07-10T12:01:33.656Z,2.63
2018-07-10T12:04:05.985Z,2.60
2018-07-10T12:06:52.205Z,2.57
2018-07-10T12:09:23.664Z,3.07
2018-07-10T12:11:57.625Z,2.63
2018-07-10T12:14:29.785Z,2.90
2018-07-10T12:17:01.674Z,2.70
2018-07-10T12:19:34.406Z,2.50
2018-07-10T12:22:10.304Z,2.70
2018-07-10T12:24:49.006Z,2.60
2018-07-10T12:27:25.583Z,2.60
2018-07-10T12:30:30.409Z,2.60
2018-07-10T12:36:06.837Z,2.67
2018-07-10T12:38:38.285Z,2.13
2018-07-10T12:41:11.537Z,2.67
2018-07-10T12:43:43.390Z,2.60
2018-07-10T12:46:14.567Z,2.47
2018-07-10T12:48:47.439Z,2.77
2018-07-10T12:51:19.724Z,3.27
2018-07-10T12:53:51.988Z,2.63
2018-07-10T12:56:23.588Z,2.47
2018-07-10T12:58:58.240Z,2.90
2018-07-10T13:01:30.282Z,2.70
2018-07-10T13:04:02.861Z,2.60
2018-07-10T13:06:34.465Z,3.03
2018-07-10T13:09:10.567Z,2.63
2018-07-10T13:11:42.689Z,2.50
2018-07-10T13:14:14.449Z,2.90
2018-07-10T13:16:46.378Z,2.87
2018-07-10T13:19:19.442Z,2.77
2018-07-10T13:21:54.199Z,2.60
2018-07-10T13:24:25.909Z,2.60
2018-07-10T13:26:58.257Z,2.77
2018-07-10T13:29:30.082Z,2.93
2018-07-10T13:32:02.184Z,3.10
2018-07-10T13:34:33.770Z,2.80
2018-07-10T13:37:06.111Z,2.90
2018-07-10T13:39:37.789Z,2.60
2018-07-10T13:42:08.911Z,2.80
2018-07-10T13:44:40.369Z,3.00
2018-07-10T13:47:13.628Z,3.60
2018-07-10T13:50:39.000Z,2.60
2018-07-10T14:00:31.081Z,2.83
2018-07-10T14:03:02.452Z,2.73
2018-07-10T14:05:34.083Z,2.83
2018-07-10T14:08:05.451Z,3.20
2018-07-10T14:10:37.126Z,3.00
2018-07-10T14:13:08.737Z,3.07
2018-07-10T14:15:40.412Z,3.10
2018-07-10T14:18:12.200Z,3.20
2018-07-10T14:20:54.652Z,2.63
2018-07-10T14:23:26.600Z,3.30
2018-07-10T14:25:58.761Z,3.07
2018-07-10T14:28:30.619Z,2.77
2018-07-10T14:31:02.771Z,2.90
2018-07-10T19:54:27.956Z,1.83
2018-07-10T19:57:00.161Z,1.90
2018-07-10T19:59:31.863Z,2.10
2018-07-10T20:02:04.658Z,1.50
2018-07-10T20:05:12.822Z,2.00
2018-07-10T20:07:58.300Z,1.77
2018-07-10T20:10:39.753Z,1.57
2018-07-10T20:13:29.117Z,1.87
2018-07-10T20:16:10.204Z,1.60
2018-07-10T20:18:57.665Z,1.70
2018-07-10T20:21:44.754Z,1.70
2018-07-10T20:24:20.045Z,1.70
2018-07-10T20:27:36.170Z,1.60
2018-07-10T20:30:52.680Z,1.83
2018-07-10T20:35:36.514Z,1.80
2018-07-10T20:38:08.253Z,1.80
2018-07-10T20:40:42.832Z,1.80
2018-07-10T20:43:16.210Z,1.70
2018-07-10T20:45:52.772Z,2.03
2018-07-10T20:48:44.249Z,1.57
2018-07-10T20:51:16.382Z,2.03
2018-07-10T20:54:14.894Z,1.70
2018-07-10T20:57:13.755Z,1.67
2018-07-10T20:59:48.708Z,1.70
2018-07-10T21:02:35.973Z,1.63
2018-07-10T21:05:14.840Z,1.80
2018-07-10T21:08:00.043Z,1.60
2018-07-10T21:10:50.761Z,1.70
2018-07-10T21:18:03.074Z,1.60
2018-07-10T21:23:28.253Z,1.60
2018-07-10T21:26:06.596Z,1.77
2018-07-10T21:29:01.414Z,1.77
2018-07-10T21:31:47.488Z,1.97
2018-07-10T21:34:54.280Z,1.43
2018-07-10T21:38:06.412Z,1.80
2018-07-10T21:41:01.124Z,1.63
2018-07-10T21:43:52.189Z,2.00
2018-07-10T21:46:40.837Z,2.23
2018-07-10T21:49:30.302Z,1.93
2018-07-10T21:52:01.782Z,2.10
2018-07-10T21:54:33.290Z,2.10
2018-07-10T21:57:05.012Z,1.90
2018-07-10T21:59:40.871Z,2.60
2018-07-10T22:02:12.816Z,2.50
2018-07-10T22:04:45.261Z,2.60
2018-07-10T22:07:19.950Z,2.50
2018-07-10T22:09:53.360Z,2.20
2018-07-10T22:15:55.705Z,2.37
2018-07-10T22:18:27.344Z,2.47
2018-07-10T22:20:59.178Z,2.40
2018-07-10T22:23:35.673Z,2.60
2018-07-10T22:26:28.240Z,2.17
2018-07-10T22:29:30.501Z,2.50
2018-07-10T22:32:07.170Z,2.20
2018-07-10T22:34:45.130Z,2.60
2018-07-10T22:37:19.533Z,2.57
2018-07-10T22:39:51.204Z,2.50
2018-07-10T22:42:22.802Z,2.30
2018-07-10T22:45:15.299Z,2.03
2018-07-10T22:47:47.237Z,2.20
2018-07-10T22:50:24.398Z,2.40
2018-07-10T22:53:01.722Z,2.33
2018-07-10T22:55:33.632Z,2.17
2018-07-10T22:58:10.921Z,2.37
2018-07-10T23:00:42.053Z,2.47
2018-07-10T23:03:26.803Z,2.20
2018-07-10T23:05:58.030Z,2.27
2018-07-10T23:08:34.787Z,2.40
2018-07-10T23:11:07.111Z,2.50
2018-07-10T23:13:42.528Z,2.20
2018-07-10T23:16:14.379Z,2.50
2018-07-10T23:18:47.175Z,2.80
2018-07-10T23:21:19.641Z,2.43
2018-07-10T23:23:50.950Z,2.53
2018-07-10T23:26:22.410Z,2.90
2018-07-10T23:28:55.043Z,2.80
2018-07-10T23:31:31.188Z,2.57
2018-07-10T23:34:19.414Z,2.80
2018-07-10T23:36:57.138Z,2.77
2018-07-10T23:40:06.035Z,2.73
2018-07-10T23:42:37.179Z,2.20
2018-07-10T23:45:19.326Z,2.57
2018-07-10T23:47:55.167Z,2.60
2018-07-10T23:50:31.447Z,2.70
2018-07-10T23:53:29.886Z,2.80
2018-07-10T23:56:00.913Z,2.60
2018-07-10T23:58:32.561Z,2.57
